Time;durP1;ratioP1;P1;durP2;ratioP2;P2;SDS_P1;SDS_P2;PMS_P1;PMS_P2;Temp;Humidity;BMP_temperature;BMP_pressure;BME280_temperature;BME280_humidity;BME280_pressure;Samples;Min_cycle;Max_cycle;Signal;HPM_P1;HPM_P2
2023/05/22 00:01:18;;;;;;;;;;;;;;;18.87;38.63;100722.72;4945239;27;98470;-69
2023/05/22 00:03:44;;;;;;;;;;;;;;;18.86;38.62;100726.56;4945244;27;98101;-62
2023/05/22 00:06:11;;;;;;;;;;;;;;;18.86;38.58;100731.19;4939757;27;98301;-62
2023/05/22 00:08:37;;;;;;;;;;;;;;;18.84;38.54;100726.06;4942181;27;98629;-62
2023/05/22 00:11:04;;;;;;;;;;;;;;;18.82;38.52;100725.59;4959028;27;98552;-71
2023/05/22 00:13:31;;;;;;;;;;;;;;;18.80;38.47;100716.09;4946080;28;98343;-70
2023/05/22 00:15:58;;;;;;;;;;;;;;;18.79;38.63;100719.97;4942212;28;97940;-62
2023/05/22 00:18:25;;;;;;;;;;;;;;;18.78;38.48;100718.31;4944964;27;98568;-63
2023/05/22 00:20:52;;;;;;;;;;;;;;;18.74;38.45;100709.97;4960965;28;97969;-70
2023/05/22 00:23:20;;;;;;;;;;;;;;;18.72;38.51;100716.88;4939785;28;98456;-62
2023/05/22 00:25:49;;;;;;;;;;;;;;;18.69;38.56;100718.28;4944170;27;98164;-63
2023/05/22 00:28:16;;;;;;;;;;;;;;;18.68;38.63;100713.13;4958419;27;98828;-70
2023/05/22 00:30:43;;;;;;;;;;;;;;;18.65;38.53;100720.81;4959885;27;98273;-62
2023/05/22 00:33:11;;;;;;;;;;;;;;;18.64;38.50;100718.41;4941380;27;98311;-62
2023/05/22 00:35:37;;;;;;;;;;;;;;;18.61;38.71;100710.84;4941319;27;97991;-62
2023/05/22 00:38:05;;;;;;;;;;;;;;;18.58;38.57;100709.56;4962145;27;98232;-70
2023/05/22 00:40:31;;;;;;;;;;;;;;;18.56;38.61;100714.53;4962392;27;97995;-70
2023/05/22 00:42:58;;;;;;;;;;;;;;;18.56;38.67;100713.72;4939318;27;98848;-63
2023/05/22 00:45:24;;;;;;;;;;;;;;;18.53;38.71;100717.09;4957396;27;98335;-69
2023/05/22 00:47:52;;;;;;;;;;;;;;;18.50;38.74;100712.25;4943897;28;99180;-62
2023/05/22 00:50:19;;;;;;;;;;;;;;;18.49;38.52;100705.19;4971676;27;98026;-62
2023/05/22 00:52:45;;;;;;;;;;;;;;;18.47;38.61;100710.97;4946099;28;98655;-69
2023/05/22 00:55:12;;;;;;;;;;;;;;;18.43;38.70;100704.53;4961925;28;98120;-70
2023/05/22 00:57:40;;;;;;;;;;;;;;;18.41;38.58;100714.94;4959436;27;98432;-70
2023/05/22 01:00:10;;;;;;;;;;;;;;;18.38;38.80;100701.91;4965245;27;98146;-70
2023/05/22 01:02:37;;;;;;;;;;;;;;;18.36;38.76;100707.69;4945183;27;98171;-62
2023/05/22 01:05:05;;;;;;;;;;;;;;;18.34;38.59;100712.66;4958568;27;98209;-62
2023/05/22 01:07:31;;;;;;;;;;;;;;;18.32;38.78;100717.63;4964358;27;99960;-70
2023/05/22 01:09:58;;;;;;;;;;;;;;;18.29;38.69;100712.78;4946522;28;98210;-62
2023/05/22 01:12:36;;;;;;;;;;;;;;;18.25;38.60;100703.63;4947824;27;99975;-70
2023/05/22 01:15:03;;;;;;;;;;;;;;;18.20;38.84;100706.50;4978606;27;98251;-62
2023/05/22 01:17:54;;;;;;;;;;;;;;;18.20;38.68;100708.44;4959972;27;99283;-62
2023/05/22 01:20:50;;;;;;;;;;;;;;;18.15;38.78;100704.69;4947829;27;98075;-62
2023/05/22 01:23:52;;;;;;;;;;;;;;;18.09;38.83;100711.41;4932616;27;99975;-62
2023/05/22 01:26:37;;;;;;;;;;;;;;;18.03;38.76;100717.28;4978780;28;97772;-62
2023/05/22 01:29:08;;;;;;;;;;;;;;;17.98;38.50;100714.69;4956805;27;98287;-62
2023/05/22 01:31:38;;;;;;;;;;;;;;;17.94;38.82;100710.97;4953261;28;99375;-70
2023/05/22 01:34:05;;;;;;;;;;;;;;;17.89;38.75;100717.38;4963949;27;97925;-69
2023/05/22 01:36:33;;;;;;;;;;;;;;;17.85;38.89;100711.72;4945826;27;98112;-63
2023/05/22 01:39:03;;;;;;;;;;;;;;;17.82;38.82;100706.88;4930651;27;98459;-69
2023/05/22 01:41:29;;;;;;;;;;;;;;;17.82;38.81;100717.00;4932355;27;97887;-62
2023/05/22 01:43:56;;;;;;;;;;;;;;;17.78;38.79;100714.06;4930883;28;98355;-70
2023/05/22 01:46:28;;;;;;;;;;;;;;;17.75;38.77;100709.25;4933789;28;98926;-62
2023/05/22 01:48:54;;;;;;;;;;;;;;;17.73;38.99;100710.66;4946834;27;98054;-62
2023/05/22 01:51:40;;;;;;;;;;;;;;;17.72;38.72;100717.19;4945789;28;99623;-70
2023/05/22 01:54:09;;;;;;;;;;;;;;;17.69;38.67;100718.63;4968288;27;98058;-70
2023/05/22 01:56:42;;;;;;;;;;;;;;;17.65;38.97;100712.19;4961252;27;100367;-62
2023/05/22 01:59:09;;;;;;;;;;;;;;;17.63;38.89;100719.84;4959899;27;98125;-62
2023/05/22 02:01:37;;;;;;;;;;;;;;;17.61;38.74;100719.38;4964321;27;98444;-71
2023/05/22 02:04:03;;;;;;;;;;;;;;;17.59;38.84;100724.31;4947598;27;98185;-61
2023/05/22 02:06:31;;;;;;;;;;;;;;;17.55;38.91;100720.59;4964493;27;98653;-70
2023/05/22 02:08:57;;;;;;;;;;;;;;;17.53;38.84;100712.72;4945255;27;99489;-70
2023/05/22 02:11:23;;;;;;;;;;;;;;;17.52;38.89;100713.03;4945887;28;98235;-61
2023/05/22 02:13:50;;;;;;;;;;;;;;;17.49;38.88;100719.91;4944118;28;98221;-70
2023/05/22 02:16:16;;;;;;;;;;;;;;;17.47;38.80;100715.88;4950038;27;98454;-70
2023/05/22 02:18:45;;;;;;;;;;;;;;;17.44;38.80;100720.00;4942263;28;107188;-70
2023/05/22 02:21:11;;;;;;;;;;;;;;;17.40;38.90;100714.38;4944927;28;98033;-63
2023/05/22 02:23:37;;;;;;;;;;;;;;;17.37;38.96;100701.38;4942600;28;98100;-62
2023/05/22 02:26:04;;;;;;;;;;;;;;;17.35;38.77;100710.97;4946136;27;98419;-62
2023/05/22 02:28:30;;;;;;;;;;;;;;;17.32;38.94;100703.41;4943067;28;98239;-69
2023/05/22 02:30:57;;;;;;;;;;;;;;;17.30;38.86;100703.72;4934164;28;98374;-62
2023/05/22 02:33:24;;;;;;;;;;;;;;;17.26;38.91;100697.28;4947871;27;98397;-69
2023/05/22 02:35:50;;;;;;;;;;;;;;;17.24;38.92;100695.94;4939714;27;98169;-62
2023/05/22 02:38:17;;;;;;;;;;;;;;;17.21;38.79;100699.28;4928015;28;99260;-62
2023/05/22 02:40:45;;;;;;;;;;;;;;;17.18;38.88;100692.53;4962912;27;98225;-62
2023/05/22 02:43:12;;;;;;;;;;;;;;;17.16;38.98;100698.28;4945226;28;98198;-62
2023/05/22 02:45:38;;;;;;;;;;;;;;;17.13;38.90;100696.19;4960843;27;98060;-70
2023/05/22 02:48:05;;;;;;;;;;;;;;;17.12;39.06;100697.28;4944419;28;99168;-62
2023/05/22 02:50:31;;;;;;;;;;;;;;;17.11;38.91;100689.44;4944087;27;99237;-70
2023/05/22 02:52:57;;;;;;;;;;;;;;;17.09;38.92;100694.34;4962103;27;98088;-70
2023/05/22 02:55:23;;;;;;;;;;;;;;;17.08;38.89;100690.03;4948383;27;98177;-62
2023/05/22 02:57:50;;;;;;;;;;;;;;;17.05;38.94;100699.59;4941107;27;97944;-62
2023/05/22 03:00:18;;;;;;;;;;;;;;;17.05;38.93;100696.88;4946713;27;101037;-69
2023/05/22 03:02:44;;;;;;;;;;;;;;;17.03;38.84;100698.31;4961127;27;98189;-62
2023/05/22 03:05:10;;;;;;;;;;;;;;;17.02;38.97;100689.34;4964008;27;98037;-62
2023/05/22 03:07:37;;;;;;;;;;;;;;;17.01;38.87;100690.44;4949865;27;99008;-63
2023/05/22 03:10:04;;;;;;;;;;;;;;;16.99;38.90;100684.50;4951391;27;98415;-70
2023/05/22 03:12:30;;;;;;;;;;;;;;;16.99;38.92;100684.50;4939210;28;98324;-70
2023/05/22 03:14:56;;;;;;;;;;;;;;;16.98;39.05;100682.06;4939469;27;98351;-70
2023/05/22 03:17:23;;;;;;;;;;;;;;;16.97;38.92;100681.25;4947294;28;98120;-62
2023/05/22 03:19:50;;;;;;;;;;;;;;;16.97;38.92;100685.91;4947223;27;98087;-70
2023/05/22 03:22:17;;;;;;;;;;;;;;;16.96;38.86;100690.56;4926308;27;99530;-62
2023/05/22 03:24:44;;;;;;;;;;;;;;;16.96;38.85;100678.84;4948787;28;97888;-63
2023/05/22 03:27:13;;;;;;;;;;;;;;;16.96;38.83;100692.47;4962164;28;99508;-70
2023/05/22 03:29:40;;;;;;;;;;;;;;;16.97;38.99;100691.34;4942351;28;100033;-63
2023/05/22 03:32:06;;;;;;;;;;;;;;;16.97;38.96;100680.47;4964221;27;98205;-70
2023/05/22 03:34:32;;;;;;;;;;;;;;;16.99;38.97;100691.88;4947943;27;98236;-63
2023/05/22 03:36:59;;;;;;;;;;;;;;;16.99;38.75;100692.69;4947810;27;98010;-70
2023/05/22 03:39:25;;;;;;;;;;;;;;;17.00;38.81;100693.47;4961678;27;98070;-70
2023/05/22 03:41:51;;;;;;;;;;;;;;;17.02;38.89;100691.28;4946312;27;98158;-70
2023/05/22 03:44:17;;;;;;;;;;;;;;;17.03;38.93;100690.16;4926515;28;98766;-70
2023/05/22 03:46:43;;;;;;;;;;;;;;;17.04;38.78;100684.38;4943047;28;98053;-70
2023/05/22 03:49:10;;;;;;;;;;;;;;;17.06;38.82;100689.53;4960192;27;98532;-62
2023/05/22 03:51:36;;;;;;;;;;;;;;;17.08;38.73;100690.03;4944687;27;97996;-70
2023/05/22 03:54:03;;;;;;;;;;;;;;;17.11;38.80;100686.69;4944494;27;98437;-62
2023/05/22 03:56:30;;;;;;;;;;;;;;;17.14;38.71;100697.78;4940789;28;97892;-70
2023/05/22 03:58:56;;;;;;;;;;;;;;;17.17;38.76;100688.19;4960103;27;98197;-65
2023/05/22 04:01:22;;;;;;;;;;;;;;;17.23;38.77;100686.19;4945835;27;98051;-62
2023/05/22 04:03:49;;;;;;;;;;;;;;;17.26;38.69;100691.81;4947596;27;98011;-70
2023/05/22 04:06:16;;;;;;;;;;;;;;;17.31;38.69;100691.69;4912889;27;99631;-64
2023/05/22 04:08:43;;;;;;;;;;;;;;;17.35;38.67;100687.25;4959423;27;99740;-70
2023/05/22 04:11:09;;;;;;;;;;;;;;;17.40;38.70;100687.13;4942256;27;100254;-63
2023/05/22 04:13:36;;;;;;;;;;;;;;;17.45;38.51;100685.38;4960275;27;98099;-63
2023/05/22 04:16:03;;;;;;;;;;;;;;;17.50;38.59;100688.03;4938644;27;97846;-63
2023/05/22 04:18:29;;;;;;;;;;;;;;;17.54;38.59;100680.84;4947034;28;98123;-71
2023/05/22 04:20:58;;;;;;;;;;;;;;;17.59;38.40;100688.88;4898279;28;100037;-71
2023/05/22 04:23:25;;;;;;;;;;;;;;;17.64;38.56;100686.03;4955402;28;99556;-71
2023/05/22 04:25:51;;;;;;;;;;;;;;;17.69;38.52;100693.31;4939666;27;98126;-70
2023/05/22 04:28:21;;;;;;;;;;;;;;;17.75;38.55;100689.34;4941949;27;98031;-63
2023/05/22 04:30:48;;;;;;;;;;;;;;;17.80;38.52;100692.78;4921328;28;98328;-71
2023/05/22 04:33:15;;;;;;;;;;;;;;;17.85;38.37;100691.84;4943217;28;98241;-70
2023/05/22 04:35:41;;;;;;;;;;;;;;;17.91;38.44;100696.03;4941931;27;98536;-70
2023/05/22 04:38:07;;;;;;;;;;;;;;;17.96;38.34;100692.38;4940597;27;97912;-70
2023/05/22 04:40:33;;;;;;;;;;;;;;;18.02;38.39;100691.13;4939350;27;98434;-70
2023/05/22 04:43:00;;;;;;;;;;;;;;;18.08;38.33;100695.34;4927690;27;99292;-63
2023/05/22 04:45:27;;;;;;;;;;;;;;;18.15;38.20;100698.44;4944405;27;98358;-71
2023/05/22 04:47:53;;;;;;;;;;;;;;;18.20;38.25;100697.50;4954748;27;98296;-62
2023/05/22 04:50:20;;;;;;;;;;;;;;;18.27;38.02;100698.66;4937542;28;105964;-70
2023/05/22 04:52:47;;;;;;;;;;;;;;;18.33;38.00;100694.69;4943594;28;98086;-70
2023/05/22 04:55:13;;;;;;;;;;;;;;;18.40;38.10;100699.69;4942170;27;98057;-70
2023/05/22 04:57:46;;;;;;;;;;;;;;;18.48;38.06;100695.41;4931185;27;98144;-70
2023/05/22 05:00:13;;;;;;;;;;;;;;;18.57;38.13;100688.03;4945961;27;98087;-70
2023/05/22 05:02:39;;;;;;;;;;;;;;;18.69;38.04;100692.91;4944541;27;98318;-63
2023/05/22 05:05:06;;;;;;;;;;;;;;;18.81;37.94;100690.41;4960633;27;99155;-62
2023/05/22 05:07:35;;;;;;;;;;;;;;;18.97;37.94;100682.56;4962943;27;97994;-63
2023/05/22 05:10:01;;;;;;;;;;;;;;;19.13;37.64;100684.50;4945641;27;98207;-62
2023/05/22 05:12:27;;;;;;;;;;;;;;;19.29;37.56;100684.84;4948594;27;98253;-63
2023/05/22 05:14:54;;;;;;;;;;;;;;;19.41;37.80;100680.69;4945567;28;98286;-70
2023/05/22 05:17:21;;;;;;;;;;;;;;;19.50;37.69;100682.31;4942582;27;98636;-62
2023/05/22 05:19:48;;;;;;;;;;;;;;;19.56;37.83;100681.00;4945966;27;98447;-70
2023/05/22 05:22:14;;;;;;;;;;;;;;;19.64;37.58;100682.16;4943185;27;98249;-70
2023/05/22 05:24:41;;;;;;;;;;;;;;;19.77;37.61;100685.88;4942458;27;98108;-63
2023/05/22 05:27:07;;;;;;;;;;;;;;;19.90;37.61;100686.81;4945365;28;97912;-70
2023/05/22 05:29:34;;;;;;;;;;;;;;;19.98;37.63;100694.19;4928938;27;101677;-63
2023/05/22 05:32:00;;;;;;;;;;;;;;;20.09;37.54;100682.56;4941305;27;97985;-70
2023/05/22 05:34:27;;;;;;;;;;;;;;;20.24;37.41;100683.16;4947061;28;98409;-70
2023/05/22 05:36:56;;;;;;;;;;;;;;;20.40;37.43;100687.00;4946341;28;98507;-63
2023/05/22 05:39:22;;;;;;;;;;;;;;;20.61;37.17;100689.03;4943015;27;97979;-70
2023/05/22 05:41:49;;;;;;;;;;;;;;;20.83;37.22;100680.53;4961740;27;99393;-62
2023/05/22 05:44:15;;;;;;;;;;;;;;;21.13;37.07;100683.22;4946038;27;99538;-70
2023/05/22 05:46:42;;;;;;;;;;;;;;;21.44;36.97;100680.13;4929326;27;98458;-70
2023/05/22 05:49:09;;;;;;;;;;;;;;;21.79;36.71;100675.94;4947381;28;98175;-70
2023/05/22 05:51:36;;;;;;;;;;;;;;;22.12;36.67;100685.28;4954130;28;97944;-62
2023/05/22 05:54:04;;;;;;;;;;;;;;;22.45;36.47;100675.06;4942619;27;99432;-70
2023/05/22 05:56:31;;;;;;;;;;;;;;;22.78;36.60;100674.16;4944102;28;97849;-62
2023/05/22 05:58:57;;;;;;;;;;;;;;;23.31;36.07;100672.25;4943880;27;98158;-62
2023/05/22 06:01:25;;;;;;;;;;;;;;;23.77;36.15;100670.03;4948086;27;98134;-62
2023/05/22 06:03:52;;;;;;;;;;;;;;;24.15;36.05;100663.97;4948950;28;97916;-63
2023/05/22 06:06:18;;;;;;;;;;;;;;;24.49;36.04;100675.47;4947361;27;98087;-62
2023/05/22 06:08:44;;;;;;;;;;;;;;;24.60;36.39;100670.22;4941769;27;98000;-70
2023/05/22 06:11:11;;;;;;;;;;;;;;;24.74;36.28;100667.81;4942165;28;100250;-62
2023/05/22 06:13:37;;;;;;;;;;;;;;;24.69;36.69;100666.13;4940054;27;98147;-62
2023/05/22 06:16:03;;;;;;;;;;;;;;;24.64;36.65;100660.91;4944336;28;98337;-70
2023/05/22 06:18:30;;;;;;;;;;;;;;;24.71;36.86;100658.28;4940270;28;98129;-62
2023/05/22 06:20:57;;;;;;;;;;;;;;;24.81;36.46;100664.41;4946132;28;98021;-62
2023/05/22 06:23:24;;;;;;;;;;;;;;;24.95;36.51;100661.97;4933775;28;98265;-70
2023/05/22 06:25:51;;;;;;;;;;;;;;;25.08;36.47;100651.63;4948446;28;99151;-62
2023/05/22 06:28:18;;;;;;;;;;;;;;;25.28;36.40;100655.22;4940646;28;99111;-70
2023/05/22 06:30:44;;;;;;;;;;;;;;;25.62;36.13;100651.59;4944625;28;97933;-62
2023/05/22 06:33:10;;;;;;;;;;;;;;;25.65;36.29;100653.59;4935299;28;98623;-62
2023/05/22 06:35:37;;;;;;;;;;;;;;;25.65;36.22;100653.59;4942743;28;98559;-62
2023/05/22 06:38:04;;;;;;;;;;;;;;;25.93;36.06;100656.13;4936574;28;98489;-70
2023/05/22 06:40:30;;;;;;;;;;;;;;;25.84;36.18;100650.06;4939504;27;98099;-70
2023/05/22 06:42:57;;;;;;;;;;;;;;;25.78;36.44;100651.53;4961595;28;98231;-62
2023/05/22 06:45:24;;;;;;;;;;;;;;;25.81;36.45;100645.25;4963528;27;98297;-69
2023/05/22 06:47:54;;;;;;;;;;;;;;;25.81;36.23;100653.53;4948220;28;98681;-62
2023/05/22 06:50:21;;;;;;;;;;;;;;;25.93;36.37;100649.81;4952648;28;98182;-70
2023/05/22 06:52:48;;;;;;;;;;;;;;;26.12;36.11;100651.72;4959577;28;98213;-62
2023/05/22 06:55:15;;;;;;;;;;;;;;;26.06;36.30;100651.25;4935135;27;99291;-69
2023/05/22 06:57:41;;;;;;;;;;;;;;;26.08;36.10;100651.66;4960881;27;98550;-62
2023/05/22 07:00:08;;;;;;;;;;;;;;;26.21;36.11;100660.56;4959109;28;105964;-62
2023/05/22 07:02:35;;;;;;;;;;;;;;;26.53;35.83;100652.06;4942877;27;98338;-62
2023/05/22 07:05:02;;;;;;;;;;;;;;;27.00;35.28;100653.50;4944719;27;98232;-62
2023/05/22 07:07:28;;;;;;;;;;;;;;;27.47;35.10;100654.91;4936922;28;97958;-62
2023/05/22 07:09:54;;;;;;;;;;;;;;;27.87;34.89;100656.97;4944640;28;100005;-70
2023/05/22 07:12:24;;;;;;;;;;;;;;;28.25;34.89;100652.16;4956639;27;98123;-62
2023/05/22 07:14:51;;;;;;;;;;;;;;;28.55;34.48;100660.38;4943788;28;99143;-62
2023/05/22 07:17:19;;;;;;;;;;;;;;;28.71;34.79;100660.06;4941750;28;99911;-62
2023/05/22 07:19:46;;;;;;;;;;;;;;;28.82;34.74;100653.41;4928807;28;98724;-70
2023/05/22 07:22:13;;;;;;;;;;;;;;;28.92;34.79;100654.66;4942060;28;98137;-70
2023/05/22 07:24:40;;;;;;;;;;;;;;;28.87;35.03;100655.03;4939790;28;97992;-62
2023/05/22 07:27:07;;;;;;;;;;;;;;;28.66;35.34;100657.69;4925187;28;98393;-71
2023/05/22 07:29:34;;;;;;;;;;;;;;;28.41;35.46;100654.69;4943729;28;98055;-70
2023/05/22 07:32:01;;;;;;;;;;;;;;;28.17;35.84;100651.31;4936408;28;99860;-62
2023/05/22 07:34:31;;;;;;;;;;;;;;;28.22;35.51;100650.16;4944413;28;98206;-70
2023/05/22 07:36:58;;;;;;;;;;;;;;;28.49;35.11;100646.09;4915266;28;98200;-62
2023/05/22 07:39:25;;;;;;;;;;;;;;;28.75;35.32;100655.34;4928913;28;98063;-69
2023/05/22 07:41:53;;;;;;;;;;;;;;;28.99;35.11;100646.41;4924097;28;98610;-70
2023/05/22 07:44:19;;;;;;;;;;;;;;;29.26;34.94;100654.47;4937383;28;98250;-70
2023/05/22 07:46:46;;;;;;;;;;;;;;;29.22;34.85;100651.66;4924067;28;98289;-69
2023/05/22 07:49:16;;;;;;;;;;;;;;;29.58;34.68;100644.28;4923703;28;99111;-62
2023/05/22 07:51:42;;;;;;;;;;;;;;;29.87;34.65;100647.16;4936570;28;98560;-62
2023/05/22 07:54:08;;;;;;;;;;;;;;;30.45;34.05;100645.19;4925189;28;98152;-70
2023/05/22 07:56:38;;;;;;;;;;;;;;;31.00;33.76;100644.69;4943478;28;99183;-62
2023/05/22 07:59:06;;;;;;;;;;;;;;;31.90;33.07;100647.88;4926123;28;98306;-62
2023/05/22 08:01:32;;;;;;;;;;;;;;;32.71;32.60;100648.41;4929638;28;98084;-70
2023/05/22 08:04:00;;;;;;;;;;;;;;;33.79;32.03;100648.69;4923768;28;98027;-70
2023/05/22 08:06:26;;;;;;;;;;;;;;;34.75;31.47;100646.31;4899773;28;98309;-70
2023/05/22 08:08:53;;;;;;;;;;;;;;;35.67;31.24;100648.44;4927557;28;98367;-63
2023/05/22 08:11:20;;;;;;;;;;;;;;;36.11;31.30;100647.00;4926600;28;98290;-62
2023/05/22 08:13:46;;;;;;;;;;;;;;;36.51;31.41;100643.22;4942576;28;98207;-62
2023/05/22 08:16:13;;;;;;;;;;;;;;;37.34;30.68;100642.50;4941581;28;98265;-62
2023/05/22 08:18:39;;;;;;;;;;;;;;;38.49;29.94;100646.06;4946326;28;98382;-63
2023/05/22 08:21:06;;;;;;;;;;;;;;;39.23;30.15;100646.66;4929308;28;100469;-62
2023/05/22 08:23:35;;;;;;;;;;;;;;;39.82;29.87;100644.72;4944612;28;98259;-68
2023/05/22 08:26:01;;;;;;;;;;;;;;;40.34;29.78;100642.97;4959902;28;98424;-61
2023/05/22 08:28:27;;;;;;;;;;;;;;;40.52;29.96;100638.56;4945486;28;98172;-68
2023/05/22 08:30:54;;;;;;;;;;;;;;;40.67;30.00;100637.50;4941874;28;98226;-60
2023/05/22 08:33:20;;;;;;;;;;;;;;;40.36;30.42;100626.34;4943783;28;98175;-68
2023/05/22 08:35:47;;;;;;;;;;;;;;;40.40;30.55;100623.34;4942688;27;98646;-60
2023/05/22 08:38:14;;;;;;;;;;;;;;;41.15;29.94;100629.31;4915967;28;97783;-69
2023/05/22 08:40:41;;;;;;;;;;;;;;;41.83;29.97;100623.25;4926094;28;98115;-60
2023/05/22 08:43:07;;;;;;;;;;;;;;;42.52;29.27;100629.81;4942388;28;98437;-61
2023/05/22 08:45:34;;;;;;;;;;;;;;;43.29;29.09;100616.81;4929145;28;98104;-60
2023/05/22 08:48:04;;;;;;;;;;;;;;;43.55;28.94;100614.94;4926722;28;99866;-61
2023/05/22 08:50:31;;;;;;;;;;;;;;;43.71;29.03;100605.09;4958885;28;98315;-68
2023/05/22 08:53:00;;;;;;;;;;;;;;;43.13;29.87;100593.38;4942704;28;98592;-61
2023/05/22 08:55:27;;;;;;;;;;;;;;;42.96;29.99;100600.81;4960885;28;100681;-69
2023/05/22 08:57:55;;;;;;;;;;;;;;;43.44;29.36;100594.88;4924188;28;98581;-60
2023/05/22 09:00:22;;;;;;;;;;;;;;;43.40;29.29;100594.31;4924972;28;98785;-60
2023/05/22 09:02:49;;;;;;;;;;;;;;;43.59;29.28;100583.53;4943583;28;98037;-67
2023/05/22 09:05:18;;;;;;;;;;;;;;;43.66;29.47;100582.31;4928339;28;98245;-60
2023/05/22 09:07:45;;;;;;;;;;;;;;;43.07;29.85;100574.72;4922969;28;98180;-68
2023/05/22 09:10:14;;;;;;;;;;;;;;;42.65;29.94;100578.63;4947248;28;98134;-60
2023/05/22 09:13:00;;;;;;;;;;;;;;;42.28;30.25;100566.81;4945200;28;99610;-68
2023/05/22 09:15:29;;;;;;;;;;;;;;;41.84;30.44;100561.78;4942353;27;97964;-60
2023/05/22 09:17:56;;;;;;;;;;;;;;;41.69;30.49;100564.53;4946705;27;98322;-68
2023/05/22 09:20:22;;;;;;;;;;;;;;;41.11;31.04;100558.03;4945961;27;98090;-61
2023/05/22 09:22:49;;;;;;;;;;;;;;;41.15;31.00;100555.84;4944196;27;97988;-61
2023/05/22 09:25:20;;;;;;;;;;;;;;;41.42;30.92;100562.63;4929450;27;98079;-60
2023/05/22 09:27:47;;;;;;;;;;;;;;;41.84;30.07;100562.56;4948268;27;97990;-68
2023/05/22 09:30:17;;;;;;;;;;;;;;;42.53;30.07;100569.13;4945103;27;97953;-69
2023/05/22 09:32:43;;;;;;;;;;;;;;;43.03;29.43;100566.38;4949766;27;98661;-69
2023/05/22 09:35:10;;;;;;;;;;;;;;;43.70;29.00;100557.38;4962578;28;99096;-69
2023/05/22 09:37:37;;;;;;;;;;;;;;;44.24;28.73;100569.91;4948397;27;98213;-69
2023/05/22 09:40:09;;;;;;;;;;;;;;;44.94;28.28;100565.22;4949801;28;98263;-69
2023/05/22 09:42:36;;;;;;;;;;;;;;;45.38;27.91;100569.69;4947902;28;98147;-69
2023/05/22 09:45:05;;;;;;;;;;;;;;;45.35;27.84;100557.28;4947724;27;99560;-61
2023/05/22 09:47:35;;;;;;;;;;;;;;;45.37;28.20;100551.09;4963797;27;99505;-61
2023/05/22 09:50:07;;;;;;;;;;;;;;;44.41;29.16;100541.72;4967031;27;97956;-69
2023/05/22 09:52:34;;;;;;;;;;;;;;;43.71;29.87;100533.41;4942497;27;98156;-61
2023/05/22 09:55:04;;;;;;;;;;;;;;;43.91;29.13;100538.34;4963852;27;98111;-69
2023/05/22 09:57:41;;;;;;;;;;;;;;;44.16;29.10;100542.47;4962834;27;97932;-69
2023/05/22 10:00:11;;;;;;;;;;;;;;;44.37;29.01;100541.16;4949585;27;98213;-69
2023/05/22 10:02:38;;;;;;;;;;;;;;;44.01;29.31;100539.72;4944757;27;98324;-61
2023/05/22 10:05:08;;;;;;;;;;;;;;;43.16;29.80;100537.00;4961295;27;99635;-69
2023/05/22 10:07:51;;;;;;;;;;;;;;;43.04;29.59;100528.28;4945545;27;98161;-69
2023/05/22 10:10:19;;;;;;;;;;;;;;;43.96;28.82;100527.03;4948602;28;97936;-69
2023/05/22 10:13:06;;;;;;;;;;;;;;;44.90;28.32;100531.34;4964917;27;98030;-69
2023/05/22 10:15:33;;;;;;;;;;;;;;;45.64;27.75;100527.72;4963518;27;97990;-62
2023/05/22 10:17:59;;;;;;;;;;;;;;;45.89;27.64;100516.72;4947597;28;100346;-61
2023/05/22 10:20:26;;;;;;;;;;;;;;;45.92;27.96;100507.94;4950022;27;98011;-61
2023/05/22 10:22:53;;;;;;;;;;;;;;;46.17;27.78;100513.94;4933823;27;98860;-61
2023/05/22 10:25:24;;;;;;;;;;;;;;;46.45;27.56;100505.47;4942020;28;98113;-61
2023/05/22 10:27:54;;;;;;;;;;;;;;;46.74;27.05;100510.69;4964112;27;98102;-70
2023/05/22 10:30:39;;;;;;;;;;;;;;;46.85;27.48;100503.41;4941406;27;98278;-69
2023/05/22 10:33:17;;;;;;;;;;;;;;;47.01;27.39;100499.81;4979698;27;98169;-68
2023/05/22 10:35:45;;;;;;;;;;;;;;;47.17;27.36;100493.28;4980469;27;98321;-67
2023/05/22 10:38:30;;;;;;;;;;;;;;;47.13;27.45;100483.44;4947263;27;98009;-67
2023/05/22 10:40:56;;;;;;;;;;;;;;;47.32;27.23;100480.81;4964878;27;99612;-68
2023/05/22 10:43:22;;;;;;;;;;;;;;;47.66;27.20;100485.06;4934863;27;97872;-69
2023/05/22 10:45:48;;;;;;;;;;;;;;;48.04;26.92;100479.72;4925352;27;98120;-70
2023/05/22 10:48:15;;;;;;;;;;;;;;;47.95;27.09;100468.59;4937442;27;99942;-65
2023/05/22 10:50:51;;;;;;;;;;;;;;;47.59;27.36;100465.66;4944530;28;98225;-63
2023/05/22 10:53:27;;;;;;;;;;;;;;;47.01;27.93;100459.91;4932296;27;98141;-64
2023/05/22 10:55:54;;;;;;;;;;;;;;;46.37;28.31;100453.16;4961208;27;98096;-63
2023/05/22 10:58:31;;;;;;;;;;;;;;;45.87;28.73;100457.47;4961434;27;98083;-63
2023/05/22 11:01:16;;;;;;;;;;;;;;;45.34;28.80;100446.88;4946180;27;98339;-69
2023/05/22 11:03:52;;;;;;;;;;;;;;;44.15;29.93;100450.88;4978066;27;98215;-62
2023/05/22 11:06:44;;;;;;;;;;;;;;;43.79;29.63;100455.88;4977282;27;98065;-70
2023/05/22 11:09:46;;;;;;;;;;;;;;;42.63;30.27;100456.50;4949461;28;98046;-68
2023/05/22 11:12:21;;;;;;;;;;;;;;;40.88;31.78;100449.34;4965780;28;98044;-69
2023/05/22 11:15:17;;;;;;;;;;;;;;;40.67;31.47;100451.13;4961079;27;98011;-63
2023/05/22 11:17:50;;;;;;;;;;;;;;;40.55;31.28;100457.75;4945622;27;98867;-69
2023/05/22 11:20:24;;;;;;;;;;;;;;;40.67;30.90;100451.13;4933656;27;98388;-69
2023/05/22 11:23:01;;;;;;;;;;;;;;;41.39;30.15;100456.94;4960994;27;98169;-62
2023/05/22 11:25:27;;;;;;;;;;;;;;;41.95;29.78;100457.34;4965056;27;97930;-69
2023/05/22 11:27:54;;;;;;;;;;;;;;;42.12;29.66;100455.59;4929495;27;98009;-69
2023/05/22 11:30:24;;;;;;;;;;;;;;;41.82;30.08;100456.84;4947633;28;98233;-69
2023/05/22 11:32:50;;;;;;;;;;;;;;;41.52;29.90;100442.59;4963239;28;98124;-62
2023/05/22 11:35:17;;;;;;;;;;;;;;;41.55;29.66;100443.66;4940832;27;99422;-69
2023/05/22 11:37:44;;;;;;;;;;;;;;;41.67;29.95;100442.63;4962122;27;99748;-62
2023/05/22 11:40:12;;;;;;;;;;;;;;;41.59;29.99;100436.56;4942372;28;98641;-69
2023/05/22 11:42:38;;;;;;;;;;;;;;;41.33;30.04;100441.09;4939267;27;98081;-62
2023/05/22 11:45:05;;;;;;;;;;;;;;;41.39;29.84;100437.16;4947252;28;98146;-62
2023/05/22 11:47:32;;;;;;;;;;;;;;;41.55;29.66;100440.84;4961601;27;98222;-62
2023/05/22 11:50:01;;;;;;;;;;;;;;;41.81;29.37;100432.59;4942763;27;98533;-69
2023/05/22 11:52:34;;;;;;;;;;;;;;;41.90;29.03;100424.88;4940415;27;98073;-62
2023/05/22 11:55:01;;;;;;;;;;;;;;;42.11;28.64;100439.13;4945995;28;98128;-69
2023/05/22 11:57:27;;;;;;;;;;;;;;;42.29;28.94;100432.50;4967604;27;99471;-69
2023/05/22 11:59:54;;;;;;;;;;;;;;;42.32;29.10;100417.38;4946036;27;98074;-69
2023/05/22 12:02:20;;;;;;;;;;;;;;;42.27;29.20;100420.91;4941182;27;99278;-69
2023/05/22 12:04:47;;;;;;;;;;;;;;;42.39;28.85;100433.97;4946190;27;98525;-68
2023/05/22 12:07:13;;;;;;;;;;;;;;;42.02;29.28;100423.03;4922980;28;98402;-62
2023/05/22 12:09:40;;;;;;;;;;;;;;;41.46;29.75;100419.06;4937334;27;98352;-62
2023/05/22 12:12:10;;;;;;;;;;;;;;;41.21;29.52;100409.78;4951817;28;97968;-62
2023/05/22 12:14:36;;;;;;;;;;;;;;;41.03;29.56;100409.09;4943951;28;97987;-70
2023/05/22 12:17:05;;;;;;;;;;;;;;;40.61;30.00;100410.69;4962370;28;98411;-62
2023/05/22 12:19:32;;;;;;;;;;;;;;;40.08;30.52;100410.31;4962764;27;98688;-62
2023/05/22 12:21:59;;;;;;;;;;;;;;;39.72;30.67;100400.63;4947162;28;97951;-62
2023/05/22 12:24:25;;;;;;;;;;;;;;;39.39;30.97;100408.91;4943884;27;98516;-62
2023/05/22 12:26:52;;;;;;;;;;;;;;;38.84;31.30;100408.72;4944762;27;98488;-62
2023/05/22 12:29:20;;;;;;;;;;;;;;;38.40;31.52;100401.16;4945270;28;98339;-68
2023/05/22 12:31:47;;;;;;;;;;;;;;;37.94;31.42;100395.22;4943686;28;98213;-68
2023/05/22 12:34:16;;;;;;;;;;;;;;;37.47;31.85;100410.09;4946468;27;98161;-61
2023/05/22 12:36:42;;;;;;;;;;;;;;;37.06;32.18;100400.59;4944042;27;98079;-62
2023/05/22 12:39:09;;;;;;;;;;;;;;;36.75;31.92;100396.78;4961267;27;98323;-67
2023/05/22 12:41:39;;;;;;;;;;;;;;;36.42;32.28;100398.94;4943201;27;98426;-65